デンバー の空港の天気 - METARとTAF

デンバー国際空港 ( KDEN / DEN ) - アメリカ コロラド州デンバー
飛行場実況気象(Metar)
観測時間05/17 08:53 MDT (05/17 14:53 UTC)
風向・風速西 3m/s
視程10km以上
天気現象
全天の4割程度の雲 雲底高度 2590m
全天を覆う雲 雲底高度 4880m
気温13.3℃
湿度80%
気圧1011.6hPa
METARKDEN 171453Z 26005KT 7SM SCT085 OVC160 13/10 A3001 RMK AO2 SLP116 T01330100 58002
過去の天気等 Google飛行場航空写真 Wunderground天気予報

過去48時間のMETAR

飛行場予報(TAF)
発表時間: 5/17 09:16 MDT (5/17 15:16 UTC)
予報対象時間: 17日9時 MDT ~ 18日12時 MDT
風向・風速西南西 3m/s
視程10km以上
天気現象煙霧
全天の4割程度の雲 雲底高度 2440m
全天を覆う雲 雲底高度 4880m
17日11時 MDT から
風向・風速南南東 3m/s
視程10km以上
全天の4割程度の雲 雲底高度 1520m
全天を覆う雲 雲底高度 2440m
17日13時 MDT から
風向・風速南東 5m/s 瞬間風速 9m/s
視程10km以上
天気現象周辺でしゅう雨
全天の4割程度の雲 雲底高度 760m
全天を覆う雲 雲底高度 1220m
17日17時 MDT から
風向・風速東南東 7m/s 瞬間風速 11m/s
視程6440m
天気現象弱い雨 周辺で雷
全天を覆う積乱雲 雲底高度 610m
17日20時 MDT から
風向・風速南西 5m/s
視程8050m
天気現象弱いしゅう雨 もや
全天を覆う雲 雲底高度 460m
17日22時 MDT から
風向・風速南西 4m/s
視程10km以上
全天の4割程度の雲 雲底高度 760m
全天の8割程度の雲 雲底高度 1220m
全天を覆う雲 雲底高度 3050m
18日9時 MDT から
風向・風速北 4m/s
視程10km以上
全天の4割程度の雲 雲底高度 910m
全天の8割程度の雲 雲底高度 1520m
全天を覆う雲 雲底高度 3660m
KDEN 171516Z 1715/1818 25006KT 6SM HZ SCT080 OVC160
FM171700 15006KT P6SM SCT050 OVC080
FM171900 13010G18KT P6SM VCSH SCT025 OVC040
FM172300 11013G21KT 4SM -RA VCTS OVC020CB
FM180200 22010KT 5SM -SHRA BR OVC015
FM180400 22008KT P6SM SCT025 BKN040 OVC100
FM181500 01008KT P6SM SCT030 BKN050 OVC120